Time;durP1;ratioP1;P1;durP2;ratioP2;P2;SDS_P1;SDS_P2;PMS_P1;PMS_P2;Temp;Humidity;BMP_temperature;BMP_pressure;BME280_temperature;BME280_humidity;BME280_pressure;Samples;Min_cycle;Max_cycle;Signal;HPM_P1;HPM_P2
2021/12/09 00:01:50;;;;;;;31.50;17.50;;;3.80;99.90;;;;;;5039795;28;20053;-80
2021/12/09 00:04:25;;;;;;;34.50;15.60;;;3.80;99.90;;;;;;5039250;28;20123;-81
2021/12/09 00:06:52;;;;;;;27.40;13.57;;;3.70;99.90;;;;;;5040790;28;20440;-81
2021/12/09 00:09:19;;;;;;;25.07;13.87;;;3.70;99.90;;;;;;5040613;28;20055;-82
2021/12/09 00:11:47;;;;;;;27.67;13.53;;;3.70;99.90;;;;;;5039205;28;20084;-80
2021/12/09 00:14:18;;;;;;;18.77;10.10;;;3.70;99.90;;;;;;5043359;28;20462;-81
2021/12/09 00:46:38;;;;;;;13.13;7.07;;;3.60;99.90;;;;;;5258820;23;20138;-81
2021/12/09 00:49:06;;;;;;;19.07;8.00;;;3.60;99.90;;;;;;5040311;28;20041;-80
2021/12/09 00:51:32;;;;;;;16.70;7.97;;;3.60;99.90;;;;;;5043178;28;20026;-80
2021/12/09 00:53:57;;;;;;;19.77;9.83;;;3.50;99.90;;;;;;5041787;28;20113;-80
2021/12/09 00:56:23;;;;;;;21.87;10.27;;;3.50;99.90;;;;;;5043072;28;20075;-80
2021/12/09 00:58:49;;;;;;;21.43;9.80;;;3.50;99.90;;;;;;5042156;28;20462;-81
2021/12/09 01:01:15;;;;;;;19.67;9.00;;;3.50;99.90;;;;;;5041029;28;20053;-79
2021/12/09 01:03:42;;;;;;;16.93;8.47;;;3.50;99.90;;;;;;5040783;28;20022;-81
2021/12/09 01:06:09;;;;;;;17.00;8.00;;;3.60;99.90;;;;;;5041946;28;20028;-81
2021/12/09 01:08:37;;;;;;;15.80;7.97;;;3.50;99.90;;;;;;5040879;28;20049;-80
2021/12/09 01:11:04;;;;;;;20.70;8.43;;;3.60;99.90;;;;;;5041524;28;20036;-81
2021/12/09 01:13:30;;;;;;;21.50;8.57;;;3.50;99.90;;;;;;5041919;28;20057;-81
2021/12/09 01:15:56;;;;;;;17.77;6.70;;;3.50;99.90;;;;;;5043358;28;20025;-79
2021/12/09 01:18:22;;;;;;;13.10;5.50;;;3.50;99.90;;;;;;5043182;28;20029;-80
2021/12/09 01:20:48;;;;;;;13.13;6.00;;;3.50;99.90;;;;;;5043419;28;20040;-81
2021/12/09 01:23:14;;;;;;;15.17;7.13;;;3.50;99.90;;;;;;5042104;28;20093;-80
2021/12/09 01:25:48;;;;;;;11.93;3.97;;;3.50;99.90;;;;;;5041694;28;20065;-81
2021/12/09 01:28:21;;;;;;;17.53;5.50;;;3.40;99.90;;;;;;5041945;28;20161;-80
2021/12/09 01:30:49;;;;;;;16.80;5.07;;;3.40;99.90;;;;;;5042026;28;20025;-79
2021/12/09 01:33:15;;;;;;;13.13;5.63;;;3.40;99.90;;;;;;5042628;28;20021;-81
2021/12/09 01:35:47;;;;;;;12.17;4.40;;;3.40;99.90;;;;;;5042422;28;20026;-81
2021/12/09 01:38:15;;;;;;;18.73;6.50;;;3.30;99.90;;;;;;5042710;28;20036;-81
2021/12/09 01:40:41;;;;;;;15.83;6.10;;;3.30;99.90;;;;;;5041202;28;20017;-80
2021/12/09 01:43:08;;;;;;;18.07;6.70;;;3.30;99.90;;;;;;5025604;28;20434;-81
2021/12/09 01:45:34;;;;;;;12.40;4.83;;;3.30;99.90;;;;;;5041721;28;20053;-81
2021/12/09 01:48:00;;;;;;;13.53;4.70;;;3.30;99.90;;;;;;5042670;28;20098;-80
2021/12/09 01:50:27;;;;;;;15.20;5.60;;;3.30;99.90;;;;;;5042261;28;20026;-82
2021/12/09 01:52:54;;;;;;;16.57;5.50;;;3.30;99.90;;;;;;5024945;28;20041;-81
2021/12/09 01:55:21;;;;;;;12.90;5.20;;;3.30;99.90;;;;;;5041022;28;20064;-79
2021/12/09 01:57:49;;;;;;;17.57;6.03;;;3.30;99.90;;;;;;5041854;28;20026;-79
2021/12/09 02:00:19;;;;;;;16.60;5.43;;;3.30;99.90;;;;;;5041688;28;20022;-80
2021/12/09 02:02:45;;;;;;;15.27;4.63;;;3.40;99.90;;;;;;5042352;28;20052;-81
2021/12/09 02:05:12;;;;;;;10.70;4.53;;;3.30;99.90;;;;;;5041240;28;20028;-82
2021/12/09 02:07:39;;;;;;;14.30;3.87;;;3.30;99.90;;;;;;5040486;28;20055;-81
2021/12/09 02:10:09;;;;;;;12.70;3.93;;;3.30;99.90;;;;;;5023538;28;20048;-81
2021/12/09 02:12:35;;;;;;;13.77;4.07;;;3.30;99.90;;;;;;5041174;28;20470;-79
2021/12/09 02:15:01;;;;;;;13.50;4.97;;;3.20;99.90;;;;;;5042079;28;20044;-81
2021/12/09 02:17:28;;;;;;;12.27;4.30;;;3.20;99.90;;;;;;5041682;28;20152;-81
2021/12/09 02:19:57;;;;;;;12.93;4.50;;;3.20;99.90;;;;;;5042016;28;20519;-81
2021/12/09 02:22:24;;;;;;;12.47;3.90;;;3.20;99.90;;;;;;5041604;28;20053;-80
2021/12/09 02:24:52;;;;;;;9.60;4.17;;;3.10;99.90;;;;;;5041157;28;20026;-80
2021/12/09 02:27:18;;;;;;;11.97;3.77;;;3.10;99.90;;;;;;5024696;28;20029;-81
2021/12/09 02:29:44;;;;;;;11.43;3.97;;;3.10;99.90;;;;;;5043106;28;20104;-82
2021/12/09 02:32:10;;;;;;;8.67;3.80;;;3.00;99.90;;;;;;5043650;28;20485;-81
2021/12/09 02:34:37;;;;;;;14.10;3.40;;;3.10;99.90;;;;;;5041411;28;20021;-80
2021/12/09 02:37:08;;;;;;;8.47;3.93;;;3.00;99.90;;;;;;5039659;28;20033;-80
2021/12/09 02:39:34;;;;;;;10.00;3.50;;;3.00;99.90;;;;;;5041296;28;20025;-80
2021/12/09 02:42:01;;;;;;;16.03;4.00;;;3.00;99.90;;;;;;5044281;28;20093;-81
2021/12/09 02:44:27;;;;;;;13.67;3.63;;;3.00;99.90;;;;;;5026853;28;20355;-81
2021/12/09 02:46:56;;;;;;;12.57;3.70;;;3.00;99.90;;;;;;5041216;28;20132;-82
2021/12/09 02:49:26;;;;;;;9.33;3.33;;;3.00;99.90;;;;;;5041349;28;20100;-80
2021/12/09 02:51:53;;;;;;;15.23;4.23;;;2.90;99.90;;;;;;5041666;28;20037;-79
2021/12/09 02:54:20;;;;;;;9.47;3.43;;;3.00;99.90;;;;;;5041364;28;20027;-81
2021/12/09 02:56:48;;;;;;;9.53;3.80;;;2.90;99.90;;;;;;5040762;28;20026;-81
2021/12/09 02:59:14;;;;;;;11.13;4.10;;;2.90;99.90;;;;;;5041870;28;20025;-80
2021/12/09 03:01:51;;;;;;;9.90;3.33;;;2.80;99.90;;;;;;5042152;28;20102;-80
2021/12/09 03:04:17;;;;;;;11.87;3.50;;;2.80;99.90;;;;;;5041181;28;20029;-80
2021/12/09 03:27:24;;;;;;;10.17;3.80;;;2.90;99.90;;;;;;5242058;23;20132;-82
2021/12/09 03:29:50;;;;;;;10.97;3.20;;;2.80;99.90;;;;;;5039486;28;20064;-82
2021/12/09 03:32:18;;;;;;;9.00;3.93;;;2.90;99.90;;;;;;5057542;28;20552;-82
2021/12/09 03:34:44;;;;;;;11.77;3.47;;;2.90;99.90;;;;;;5057881;28;20466;-82
2021/12/09 03:37:15;;;;;;;14.13;3.37;;;3.00;99.90;;;;;;5056019;28;20017;-82
2021/12/09 03:39:43;;;;;;;10.27;3.20;;;2.90;99.90;;;;;;5046996;28;20040;-82
2021/12/09 03:42:12;;;;;;;10.23;3.53;;;2.90;99.90;;;;;;5041438;28;20037;-81
2021/12/09 03:44:39;;;;;;;11.60;3.17;;;2.90;99.90;;;;;;5054994;28;20494;-82
2021/12/09 03:47:08;;;;;;;14.60;3.20;;;2.90;99.90;;;;;;5059260;28;20021;-80
2021/12/09 03:49:34;;;;;;;10.70;2.90;;;2.90;99.90;;;;;;5059799;28;20033;-82
2021/12/09 03:52:00;;;;;;;10.27;3.40;;;2.90;99.90;;;;;;5041154;28;20033;-82
2021/12/09 03:54:27;;;;;;;8.57;2.87;;;2.80;99.90;;;;;;5058996;28;20044;-82
2021/12/09 03:56:53;;;;;;;9.00;3.47;;;2.80;99.90;;;;;;5059457;28;20040;-82
2021/12/09 03:59:19;;;;;;;11.77;3.70;;;2.80;99.90;;;;;;5064819;28;20029;-81
2021/12/09 04:01:45;;;;;;;12.13;3.80;;;2.80;99.90;;;;;;5065087;28;20044;-82
2021/12/09 04:04:13;;;;;;;12.50;3.40;;;2.70;99.90;;;;;;5060121;28;20033;-82
2021/12/09 04:06:39;;;;;;;8.97;2.90;;;2.70;99.90;;;;;;5061285;28;20044;-83
2021/12/09 04:09:07;;;;;;;6.77;2.90;;;2.70;99.90;;;;;;5058981;28;20021;-83
2021/12/09 04:11:33;;;;;;;9.00;3.33;;;2.70;99.90;;;;;;5054109;28;20030;-83
2021/12/09 04:13:59;;;;;;;11.23;3.07;;;2.80;99.90;;;;;;5047036;28;20025;-83
2021/12/09 04:16:25;;;;;;;10.73;3.07;;;2.80;99.90;;;;;;5058772;28;20032;-83
2021/12/09 04:18:51;;;;;;;7.77;2.60;;;2.80;99.90;;;;;;5043281;28;20029;-83
2021/12/09 04:21:16;;;;;;;8.07;3.20;;;2.80;99.90;;;;;;5054567;28;20383;-79
2021/12/09 04:23:42;;;;;;;8.00;3.20;;;2.90;99.90;;;;;;5041982;28;20124;-83
2021/12/09 04:26:09;;;;;;;10.70;2.80;;;3.00;99.90;;;;;;5042947;28;20033;-79
2021/12/09 04:28:37;;;;;;;9.97;2.80;;;3.00;99.90;;;;;;5060026;28;20047;-82
2021/12/09 04:31:03;;;;;;;7.03;2.80;;;3.00;99.90;;;;;;5060599;28;20037;-83
2021/12/09 04:33:32;;;;;;;7.73;3.10;;;3.00;99.90;;;;;;5053578;28;20234;-81
2021/12/09 04:35:58;;;;;;;11.23;2.83;;;3.00;99.90;;;;;;5059258;28;20059;-83
2021/12/09 04:38:25;;;;;;;13.53;2.60;;;3.00;99.90;;;;;;5057668;28;20083;-83
2021/12/09 04:40:50;;;;;;;7.23;2.17;;;3.00;99.90;;;;;;5054746;28;20021;-83
2021/12/09 04:43:17;;;;;;;11.17;2.50;;;3.00;99.90;;;;;;5054231;28;20025;-83
2021/12/09 04:45:43;;;;;;;11.90;3.03;;;3.10;99.90;;;;;;5055693;28;20041;-84
2021/12/09 04:48:09;;;;;;;7.83;2.77;;;3.10;99.90;;;;;;5042128;28;20033;-82
2021/12/09 04:50:38;;;;;;;9.30;3.00;;;3.10;99.90;;;;;;5061061;28;20040;-83
2021/12/09 04:53:06;;;;;;;6.60;3.00;;;3.20;99.90;;;;;;5059771;28;20044;-83
2021/12/09 04:55:33;;;;;;;9.27;3.00;;;3.20;99.90;;;;;;5058118;28;20056;-83
2021/12/09 04:57:59;;;;;;;10.00;2.50;;;3.20;99.90;;;;;;5057549;28;20029;-81
2021/12/09 05:00:28;;;;;;;6.20;2.50;;;3.20;99.90;;;;;;5054466;28;20053;-82
2021/12/09 05:03:03;;;;;;;8.87;2.83;;;3.30;99.90;;;;;;5047650;28;20037;-82
2021/12/09 05:05:34;;;;;;;12.07;3.47;;;3.30;99.90;;;;;;5033652;28;20029;-82
2021/12/09 05:08:00;;;;;;;8.47;2.93;;;3.40;99.90;;;;;;5050930;28;20033;-82
2021/12/09 05:10:26;;;;;;;6.27;2.30;;;3.40;99.90;;;;;;5034365;28;20488;-82
2021/12/09 05:12:52;;;;;;;7.53;2.40;;;3.40;99.90;;;;;;5045901;28;20037;-82
2021/12/09 05:15:18;;;;;;;8.57;2.67;;;3.40;99.90;;;;;;5053334;28;20095;-82
2021/12/09 05:17:44;;;;;;;9.40;2.43;;;3.30;99.90;;;;;;5052629;28;20075;-83
2021/12/09 05:20:10;;;;;;;11.17;2.83;;;3.30;99.90;;;;;;5052676;28;20108;-82
2021/12/09 05:22:36;;;;;;;6.83;2.60;;;3.40;99.90;;;;;;5029272;28;20280;-82
2021/12/09 05:25:01;;;;;;;9.17;2.67;;;3.40;99.90;;;;;;5053606;28;20094;-83
2021/12/09 05:27:29;;;;;;;8.80;2.60;;;3.40;99.90;;;;;;5049000;28;20132;-82
2021/12/09 05:30:04;;;;;;;10.87;2.83;;;3.40;99.90;;;;;;5032988;28;20065;-82
2021/12/09 05:32:31;;;;;;;15.40;3.27;;;3.40;99.90;;;;;;5049787;28;20034;-82
2021/12/09 05:34:57;;;;;;;8.60;2.67;;;3.30;99.90;;;;;;5053032;28;20374;-82
2021/12/09 05:37:25;;;;;;;11.70;2.83;;;3.30;99.90;;;;;;5052770;28;20540;-82
2021/12/09 05:39:53;;;;;;;9.73;2.50;;;3.30;99.90;;;;;;5054505;28;20416;-83
2021/12/09 05:42:21;;;;;;;15.43;2.90;;;3.30;99.90;;;;;;5049962;28;20037;-79
2021/12/09 05:44:48;;;;;;;5.77;2.30;;;3.30;99.90;;;;;;5052959;28;20032;-81
2021/12/09 05:47:14;;;;;;;6.97;2.43;;;3.30;99.90;;;;;;5050129;28;20480;-81
2021/12/09 05:49:43;;;;;;;12.00;2.50;;;3.30;99.90;;;;;;5051086;28;20443;-81
2021/12/09 05:52:09;;;;;;;10.83;2.77;;;3.30;99.90;;;;;;5051568;28;20033;-81
2021/12/09 05:54:35;;;;;;;7.57;2.50;;;3.40;99.90;;;;;;5049796;28;20033;-81
2021/12/09 05:57:01;;;;;;;8.90;2.73;;;3.40;99.90;;;;;;5035671;28;20449;-81
2021/12/09 05:59:27;;;;;;;11.93;2.70;;;3.40;99.90;;;;;;5051897;28;20029;-83
2021/12/09 06:01:53;;;;;;;10.67;3.00;;;3.40;99.90;;;;;;5052966;28;20055;-82
2021/12/09 06:04:21;;;;;;;8.27;2.50;;;3.40;99.90;;;;;;5052611;28;20033;-82
2021/12/09 06:06:48;;;;;;;9.53;2.23;;;3.40;99.90;;;;;;5041189;28;20033;-81
2021/12/09 06:09:14;;;;;;;10.20;2.43;;;3.40;99.90;;;;;;5045316;28;20033;-81
2021/12/09 06:11:41;;;;;;;7.37;2.40;;;3.30;99.90;;;;;;5051077;28;20032;-81
2021/12/09 06:14:08;;;;;;;9.00;2.70;;;3.30;99.90;;;;;;5033302;28;20030;-82
2021/12/09 06:16:35;;;;;;;7.90;2.63;;;3.30;99.90;;;;;;5049302;28;20107;-81
2021/12/09 06:19:02;;;;;;;5.90;2.57;;;3.40;99.90;;;;;;5051347;28;20052;-80
2021/12/09 06:21:28;;;;;;;11.73;3.10;;;3.40;99.90;;;;;;5044240;28;20095;-82
2021/12/09 06:23:55;;;;;;;12.20;3.27;;;3.40;99.90;;;;;;5041146;28;20033;-81
2021/12/09 06:26:21;;;;;;;10.57;2.80;;;3.40;99.90;;;;;;5051098;28;20088;-81
2021/12/09 06:28:48;;;;;;;8.97;3.33;;;3.40;99.90;;;;;;5050226;28;20436;-81
2021/12/09 06:31:13;;;;;;;10.97;3.33;;;3.40;99.90;;;;;;5050337;28;20037;-81
2021/12/09 06:33:39;;;;;;;9.43;2.87;;;3.40;99.90;;;;;;5049945;28;20358;-80
2021/12/09 06:36:05;;;;;;;11.77;3.20;;;3.40;99.90;;;;;;5049737;28;20036;-78
2021/12/09 06:38:31;;;;;;;12.97;3.60;;;3.50;99.90;;;;;;5050398;28;20572;-81
2021/12/09 06:40:57;;;;;;;7.63;2.60;;;3.50;99.90;;;;;;5050144;28;20037;-81
2021/12/09 06:43:23;;;;;;;10.33;3.57;;;3.50;99.90;;;;;;5052184;28;20025;-81
2021/12/09 06:45:49;;;;;;;10.67;2.53;;;3.50;99.90;;;;;;5049436;28;20128;-81
2021/12/09 06:48:15;;;;;;;8.90;2.43;;;3.50;99.90;;;;;;5050898;28;20036;-80
2021/12/09 06:50:41;;;;;;;9.33;3.10;;;3.40;99.90;;;;;;5045996;28;20108;-80
2021/12/09 06:53:08;;;;;;;12.03;3.80;;;3.40;99.90;;;;;;5032959;28;20103;-80
2021/12/09 06:55:35;;;;;;;10.73;3.63;;;3.30;99.90;;;;;;5031661;28;20152;-82
2021/12/09 06:58:00;;;;;;;12.60;3.57;;;3.40;99.90;;;;;;5015434;28;20092;-81
2021/12/09 07:00:30;;;;;;;11.40;3.53;;;3.40;99.90;;;;;;5037087;28;20020;-79
2021/12/09 07:02:56;;;;;;;11.20;3.97;;;3.30;99.90;;;;;;5050571;28;20052;-81
2021/12/09 07:05:25;;;;;;;12.57;3.43;;;3.30;99.90;;;;;;5049072;28;20041;-80
2021/12/09 07:07:51;;;;;;;12.03;3.47;;;3.30;99.90;;;;;;5048490;28;20542;-81
2021/12/09 07:10:18;;;;;;;10.37;3.90;;;3.40;99.90;;;;;;5047371;28;20453;-82
2021/12/09 07:12:43;;;;;;;8.67;2.90;;;3.40;99.90;;;;;;5048765;28;20041;-81
2021/12/09 07:15:11;;;;;;;12.90;3.67;;;3.40;99.90;;;;;;5034530;28;20032;-81
2021/12/09 07:17:38;;;;;;;12.50;4.13;;;3.40;99.90;;;;;;5027520;28;20025;-81
2021/12/09 07:20:06;;;;;;;9.93;4.30;;;3.40;99.90;;;;;;5050605;28;20026;-80
2021/12/09 07:22:32;;;;;;;13.60;3.90;;;3.30;99.90;;;;;;5045592;28;20032;-78
2021/12/09 07:24:57;;;;;;;9.03;3.73;;;3.30;99.90;;;;;;5028960;28;20033;-80
2021/12/09 07:27:23;;;;;;;10.43;3.40;;;3.20;99.90;;;;;;5040283;28;20048;-80
2021/12/09 07:29:49;;;;;;;7.13;4.60;;;3.30;99.90;;;;;;5050350;28;20033;-80
2021/12/09 07:32:14;;;;;;;10.47;4.10;;;3.30;99.90;;;;;;5050422;28;20037;-79
2021/12/09 07:34:40;;;;;;;8.20;4.10;;;3.30;99.90;;;;;;5030311;28;20481;-80
2021/12/09 07:37:06;;;;;;;10.27;4.00;;;3.40;99.90;;;;;;5048340;28;20024;-79
2021/12/09 07:39:33;;;;;;;11.67;4.77;;;3.40;99.90;;;;;;5053574;28;20037;-80
2021/12/09 07:41:59;;;;;;;15.93;4.77;;;3.40;99.90;;;;;;5051804;28;20028;-80
2021/12/09 07:44:30;;;;;;;10.13;4.70;;;3.40;99.90;;;;;;5049396;28;20029;-81
2021/12/09 07:46:57;;;;;;;11.13;4.77;;;3.40;99.90;;;;;;5048927;28;20114;-80
2021/12/09 07:49:24;;;;;;;10.80;4.20;;;3.50;99.90;;;;;;5050120;28;20056;-81
2021/12/09 07:51:50;;;;;;;11.30;4.30;;;3.40;99.90;;;;;;5049669;28;20036;-80
2021/12/09 07:54:16;;;;;;;14.00;4.77;;;3.50;99.90;;;;;;5033270;28;20112;-81
2021/12/09 07:56:43;;;;;;;9.67;4.80;;;3.70;99.90;;;;;;5053401;28;20025;-81
2021/12/09 07:59:11;;;;;;;14.93;5.20;;;3.80;99.90;;;;;;5039698;28;20036;-80
2021/12/09 08:01:39;;;;;;;13.87;5.10;;;4.00;99.90;;;;;;5057294;28;20029;-79
2021/12/09 08:04:07;;;;;;;15.00;5.17;;;4.20;99.90;;;;;;5036093;28;20030;-81
2021/12/09 08:06:44;;;;;;;11.40;5.10;;;4.50;99.90;;;;;;5056976;28;20187;-82
2021/12/09 08:09:10;;;;;;;10.30;4.37;;;4.60;99.90;;;;;;5041475;28;20496;-81
2021/12/09 08:11:39;;;;;;;10.17;4.80;;;4.90;99.90;;;;;;5033915;28;20080;-82
2021/12/09 08:14:06;;;;;;;7.73;3.93;;;5.00;99.90;;;;;;5047919;28;20044;-81
2021/12/09 08:16:37;;;;;;;15.63;5.40;;;5.00;99.90;;;;;;5039989;28;20492;-81
2021/12/09 08:19:05;;;;;;;14.00;4.83;;;5.00;99.30;;;;;;5049448;28;20032;-81
2021/12/09 08:21:33;;;;;;;10.17;4.47;;;4.80;99.10;;;;;;5035157;28;20409;-82
2021/12/09 08:23:59;;;;;;;10.50;5.10;;;4.70;99.20;;;;;;5047159;28;20033;-83
2021/12/09 08:26:25;;;;;;;12.63;5.50;;;4.80;99.40;;;;;;5057590;28;20049;-80
2021/12/09 08:28:51;;;;;;;15.67;5.93;;;4.70;99.50;;;;;;5055597;28;20045;-81
2021/12/09 08:31:17;;;;;;;11.73;5.87;;;4.80;99.50;;;;;;5055530;28;20398;-82
2021/12/09 08:33:43;;;;;;;16.73;5.70;;;4.90;99.50;;;;;;5055518;28;20088;-81
2021/12/09 08:36:10;;;;;;;12.30;5.50;;;4.90;99.40;;;;;;5038046;28;20084;-79
2021/12/09 08:38:36;;;;;;;16.80;5.30;;;4.90;99.40;;;;;;5022506;28;20033;-82
2021/12/09 08:41:02;;;;;;;18.73;7.50;;;5.00;99.50;;;;;;5044988;28;20025;-81
2021/12/09 08:43:28;;;;;;;14.57;5.57;;;4.90;99.50;;;;;;5032808;28;20500;-81
2021/12/09 08:45:54;;;;;;;12.60;6.00;;;5.00;99.30;;;;;;5008751;28;20029;-80
2021/12/09 08:48:22;;;;;;;13.67;6.77;;;5.10;99.50;;;;;;5044199;28;20033;-81
2021/12/09 08:50:48;;;;;;;15.33;6.23;;;5.10;99.20;;;;;;5050246;28;20480;-79
2021/12/09 08:53:17;;;;;;;15.47;7.20;;;5.10;99.30;;;;;;5044816;28;20036;-82
2021/12/09 08:55:43;;;;;;;12.47;7.17;;;5.20;99.30;;;;;;5059816;28;20029;-82
2021/12/09 08:58:10;;;;;;;17.40;8.43;;;5.30;99.20;;;;;;5042147;28;20035;-82
2021/12/09 09:00:38;;;;;;;15.50;7.07;;;5.30;99.10;;;;;;5042116;28;20028;-80
2021/12/09 09:03:04;;;;;;;13.53;8.23;;;5.40;98.90;;;;;;5060039;28;20041;-81
2021/12/09 09:05:34;;;;;;;18.77;7.20;;;5.40;98.90;;;;;;5061595;28;20017;-82
2021/12/09 09:08:02;;;;;;;16.43;7.20;;;5.30;98.70;;;;;;5062700;28;20020;-83
2021/12/09 09:10:30;;;;;;;13.73;5.40;;;5.30;98.80;;;;;;5062743;28;20154;-81
2021/12/09 09:12:55;;;;;;;15.67;7.50;;;5.40;98.70;;;;;;5053322;28;20493;-82
2021/12/09 09:15:24;;;;;;;18.80;7.97;;;5.30;98.50;;;;;;5053066;28;20029;-82
2021/12/09 09:17:50;;;;;;;14.67;6.30;;;5.40;98.80;;;;;;5061690;28;20029;-81
2021/12/09 09:20:19;;;;;;;17.33;7.60;;;5.50;98.60;;;;;;5060415;28;20048;-82
2021/12/09 09:22:45;;;;;;;19.10;8.53;;;5.50;98.80;;;;;;5057018;28;20029;-83
2021/12/09 09:25:17;;;;;;;19.53;8.57;;;5.60;98.60;;;;;;5060737;28;20221;-80
2021/12/09 09:27:45;;;;;;;23.35;11.35;;;5.70;98.70;;;;;;5060284;28;20045;-81
2021/12/09 09:30:17;;;;;;;12.30;5.90;;;5.70;98.60;;;;;;5061539;28;20025;-80
2021/12/09 09:32:47;;;;;;;15.73;7.43;;;5.80;98.40;;;;;;5059866;28;20029;-80
2021/12/09 09:35:14;;;;;;;20.70;9.07;;;5.70;98.20;;;;;;5059469;28;20028;-81
2021/12/09 09:37:40;;;;;;;12.83;7.03;;;5.70;98.40;;;;;;5060583;28;20040;-83
2021/12/09 09:40:11;;;;;;;13.87;6.40;;;5.80;98.30;;;;;;5061078;28;20041;-80
2021/12/09 09:45:14;;;;;;;18.07;8.43;;;5.70;98.20;;;;;;5064304;28;20033;-80
2021/12/09 09:47:40;;;;;;;14.97;7.23;;;5.80;98.20;;;;;;5062240;28;20033;-80
2021/12/09 09:50:08;;;;;;;18.10;7.10;;;5.80;98.10;;;;;;5058419;28;20032;-81
2021/12/09 09:52:34;;;;;;;16.53;7.40;;;5.90;98.20;;;;;;5053380;28;20033;-79
2021/12/09 09:55:01;;;;;;;16.90;8.07;;;5.90;98.20;;;;;;5052533;28;20033;-79
2021/12/09 09:57:28;;;;;;;18.47;6.50;;;6.00;98.20;;;;;;5025997;28;20478;-81
2021/12/09 09:59:54;;;;;;;18.60;8.77;;;6.00;97.90;;;;;;5045829;28;20029;-80
2021/12/09 10:02:19;;;;;;;14.37;7.67;;;6.00;98.10;;;;;;5051351;28;20075;-80
2021/12/09 10:04:48;;;;;;;13.87;6.33;;;6.00;98.30;;;;;;5034801;28;20091;-79
2021/12/09 10:07:16;;;;;;;19.97;8.93;;;6.00;97.80;;;;;;5035904;28;20242;-78
2021/12/09 10:09:43;;;;;;;13.77;6.87;;;6.00;98.00;;;;;;5052758;28;20116;-78
2021/12/09 10:12:09;;;;;;;12.83;6.97;;;6.10;97.90;;;;;;5052432;28;20059;-80
2021/12/09 10:14:37;;;;;;;13.97;5.53;;;6.10;97.90;;;;;;5051352;28;20032;-80
2021/12/09 10:17:10;;;;;;;14.63;7.00;;;6.10;97.70;;;;;;5031245;28;20044;-79
2021/12/09 10:19:39;;;;;;;17.30;7.53;;;6.00;97.90;;;;;;5042615;28;20060;-80
2021/12/09 10:22:17;;;;;;;17.27;6.30;;;6.00;97.90;;;;;;5051282;28;20033;-80
2021/12/09 10:24:45;;;;;;;11.83;5.00;;;6.00;97.80;;;;;;5052725;28;20033;-79
2021/12/09 10:27:28;;;;;;;13.50;6.87;;;6.00;97.60;;;;;;5049823;28;20087;-80
2021/12/09 10:30:15;;;;;;;11.45;5.82;;;6.00;97.70;;;;;;5052416;28;20025;-80
2021/12/09 10:32:42;;;;;;;11.37;5.50;;;5.90;97.50;;;;;;5052777;28;20043;-80
2021/12/09 10:35:15;;;;;;;14.20;5.73;;;5.90;97.50;;;;;;5031972;28;20029;-78
2021/12/09 10:37:43;;;;;;;12.50;5.93;;;5.80;97.60;;;;;;5049413;28;20083;-79
2021/12/09 10:40:12;;;;;;;11.47;6.33;;;5.90;97.80;;;;;;5051411;28;20112;-80
2021/12/09 10:42:39;;;;;;;12.23;5.70;;;5.80;97.60;;;;;;5051278;28;20115;-79
2021/12/09 10:45:18;;;;;;;13.07;6.13;;;5.80;97.80;;;;;;5050277;28;20039;-80
2021/12/09 10:47:59;;;;;;;12.37;4.90;;;5.80;97.80;;;;;;5050958;28;20385;-81
2021/12/09 10:53:32;;;;;;;12.63;5.57;;;5.80;97.70;;;;;;5051743;28;20486;-79
2021/12/09 10:56:10;;;;;;;11.40;5.37;;;5.80;97.80;;;;;;5048704;28;20501;-79
2021/12/09 10:58:41;;;;;;;10.67;5.70;;;5.80;97.80;;;;;;5048382;28;20029;-78
2021/12/09 11:01:12;;;;;;;7.87;4.07;;;5.80;97.90;;;;;;5033798;28;20041;-79
2021/12/09 11:03:40;;;;;;;14.97;5.10;;;5.90;97.70;;;;;;5035906;28;20029;-80
2021/12/09 11:06:10;;;;;;;7.87;4.60;;;5.90;97.70;;;;;;5050256;28;20390;-80
2021/12/09 11:08:37;;;;;;;11.20;5.27;;;5.90;97.50;;;;;;5050523;28;20487;-80
2021/12/09 11:11:06;;;;;;;13.20;4.73;;;5.90;97.60;;;;;;5052469;28;20108;-80
2021/12/09 11:13:40;;;;;;;10.60;5.43;;;6.00;97.80;;;;;;5050066;28;20082;-79
2021/12/09 11:16:07;;;;;;;7.57;4.00;;;6.00;97.70;;;;;;5052439;28;20047;-81
2021/12/09 11:18:41;;;;;;;8.40;3.97;;;6.10;97.80;;;;;;5050356;28;20143;-79
2021/12/09 11:21:31;;;;;;;8.20;4.57;;;6.10;97.60;;;;;;5050965;28;20031;-80
2021/12/09 11:24:02;;;;;;;8.07;4.20;;;6.10;97.50;;;;;;5049359;28;20053;-79
2021/12/09 11:26:50;;;;;;;8.93;4.70;;;6.10;97.20;;;;;;5051952;28;20025;-79
2021/12/09 11:29:37;;;;;;;8.83;5.23;;;6.10;97.80;;;;;;5049838;28;20032;-79
2021/12/09 11:34:57;;;;;;;10.23;3.90;;;6.20;97.70;;;;;;5051314;28;20037;-79
2021/12/09 11:40:09;;;;;;;10.47;4.20;;;6.20;96.90;;;;;;5046713;28;20037;-79
2021/12/09 11:42:44;;;;;;;6.57;3.30;;;6.10;97.00;;;;;;5050279;28;20123;-80
2021/12/09 11:45:12;;;;;;;8.00;4.47;;;6.10;96.70;;;;;;5050186;28;20029;-79
2021/12/09 11:47:39;;;;;;;7.97;3.87;;;6.10;97.40;;;;;;5050066;28;20060;-79
2021/12/09 11:50:07;;;;;;;8.10;3.77;;;6.00;97.20;;;;;;5049397;28;20455;-77
2021/12/09 11:52:35;;;;;;;7.63;4.13;;;6.00;97.40;;;;;;5052184;28;20377;-78
2021/12/09 11:55:04;;;;;;;8.80;3.80;;;6.00;97.70;;;;;;5051547;28;20108;-78
2021/12/09 11:57:38;;;;;;;5.53;3.17;;;6.00;97.80;;;;;;5033892;28;20437;-79
2021/12/09 12:12:46;;;;;;;8.37;3.40;;;6.20;97.30;;;;;;5050505;28;20120;-80
2021/12/09 12:21:16;;;;;;;4.87;2.90;;;6.20;97.50;;;;;;5031833;28;20127;-78
2021/12/09 12:24:02;;;;;;;5.97;2.83;;;6.20;97.70;;;;;;5039684;28;20108;-79
2021/12/09 12:38:18;;;;;;;5.93;2.97;;;5.80;97.90;;;;;;5050359;28;20033;-78
2021/12/09 12:41:09;;;;;;;6.80;3.00;;;5.80;97.80;;;;;;5046832;28;20040;-79
2021/12/09 12:43:45;;;;;;;4.90;2.90;;;5.90;98.10;;;;;;5048240;28;20055;-80
2021/12/09 12:48:59;;;;;;;7.57;3.37;;;5.90;97.80;;;;;;5050845;28;20043;-78
2021/12/09 12:51:35;;;;;;;4.87;2.50;;;6.00;98.30;;;;;;5049049;28;20112;-79
2021/12/09 12:54:17;;;;;;;3.27;2.47;;;6.00;98.10;;;;;;5048840;28;20025;-82
2021/12/09 12:56:54;;;;;;;4.83;2.57;;;6.10;98.00;;;;;;5051168;28;20067;-80
2021/12/09 12:59:42;;;;;;;6.67;2.37;;;6.10;98.00;;;;;;5050795;28;20415;-79
2021/12/09 13:02:41;;;;;;;5.17;2.70;;;6.10;97.80;;;;;;5048697;28;20059;-79
2021/12/09 13:05:22;;;;;;;7.67;2.80;;;6.10;97.70;;;;;;5047923;28;20599;-79
2021/12/09 13:10:47;;;;;;;4.53;2.40;;;6.10;97.80;;;;;;5030653;28;20053;-78
2021/12/09 13:17:01;;;;;;;4.70;2.70;;;6.00;97.70;;;;;;5054358;28;20032;-79
2021/12/09 13:21:44;;;;;;;5.80;2.90;;;6.10;98.10;;;;;;5057783;28;20504;-78
2021/12/09 13:24:24;;;;;;;7.97;3.17;;;6.10;97.80;;;;;;5052442;28;20020;-79
2021/12/09 13:29:55;;;;;;;6.17;2.50;;;6.10;98.00;;;;;;5057219;28;20590;-79
2021/12/09 13:33:03;;;;;;;5.27;2.50;;;6.10;97.70;;;;;;5054478;28;20397;-80
2021/12/09 13:38:51;;;;;;;6.50;2.60;;;6.10;98.10;;;;;;5053409;28;20033;-78
2021/12/09 13:47:06;;;;;;;6.97;3.27;;;6.10;97.90;;;;;;5053656;28;20091;-83
2021/12/09 13:55:31;;;;;;;7.87;3.20;;;6.10;98.10;;;;;;5059414;28;20032;-81
2021/12/09 13:58:06;;;;;;;5.93;3.40;;;6.10;98.00;;;;;;5049493;28;20307;-81
2021/12/09 14:00:37;;;;;;;5.00;3.33;;;6.20;98.10;;;;;;5056404;28;20025;-82
2021/12/09 14:03:04;;;;;;;5.67;3.33;;;6.20;98.10;;;;;;5052577;28;20052;-80
2021/12/09 14:05:37;;;;;;;8.03;3.80;;;6.20;98.10;;;;;;5055277;28;20037;-81
2021/12/09 14:08:08;;;;;;;6.85;3.78;;;6.30;98.20;;;;;;5056897;28;20037;-80
2021/12/09 14:10:37;;;;;;;9.20;4.33;;;6.30;98.20;;;;;;5059821;28;20067;-79
2021/12/09 14:13:09;;;;;;;9.50;5.23;;;6.30;98.30;;;;;;5059935;28;20026;-79
2021/12/09 14:15:56;;;;;;;9.45;4.22;;;6.40;98.50;;;;;;5048993;28;20028;-78
2021/12/09 14:18:25;;;;;;;11.50;4.97;;;6.40;98.40;;;;;;5044979;28;20030;-80
2021/12/09 14:20:50;;;;;;;8.80;4.37;;;6.40;98.50;;;;;;5055168;28;20043;-79
2021/12/09 14:23:17;;;;;;;11.23;5.47;;;6.40;98.50;;;;;;5039362;28;20127;-79
2021/12/09 14:25:43;;;;;;;13.83;4.73;;;6.50;98.60;;;;;;5039353;28;20029;-80
2021/12/09 14:28:15;;;;;;;9.80;4.70;;;6.50;98.30;;;;;;5032371;28;20054;-79
2021/12/09 14:30:42;;;;;;;12.17;5.80;;;6.50;98.20;;;;;;5033362;28;20029;-79
2021/12/09 14:33:09;;;;;;;8.93;4.20;;;6.40;98.30;;;;;;5008234;28;20087;-80
2021/12/09 14:35:47;;;;;;;7.67;4.13;;;6.40;98.30;;;;;;5054774;28;20032;-80
2021/12/09 14:38:23;;;;;;;11.47;5.17;;;6.30;97.90;;;;;;5054768;28;20082;-81
2021/12/09 14:40:56;;;;;;;11.63;5.77;;;6.30;98.10;;;;;;5054370;28;20025;-82
2021/12/09 14:43:23;;;;;;;10.00;4.40;;;6.30;98.30;;;;;;5050588;28;20041;-81
2021/12/09 14:45:57;;;;;;;9.03;4.40;;;6.40;98.30;;;;;;5051821;28;20030;-81
2021/12/09 14:48:30;;;;;;;7.63;4.23;;;6.30;98.20;;;;;;5044403;28;20044;-83
2021/12/09 14:50:57;;;;;;;;;;;6.30;98.30;;;;;;5055990;28;20067;-81
2021/12/09 14:53:38;;;;;;;14.00;4.80;;;6.30;98.50;;;;;;5054814;28;19919;-82
2021/12/09 14:56:06;;;;;;;9.63;4.87;;;6.30;98.30;;;;;;5067267;28;20047;-81
2021/12/09 14:58:38;;;;;;;15.00;6.50;;;6.20;98.20;;;;;;5052032;28;20057;-81
2021/12/09 15:01:14;;;;;;;13.77;5.70;;;6.30;98.50;;;;;;5052661;28;20029;-80